Time;durP1;ratioP1;P1;durP2;ratioP2;P2;SDS_P1;SDS_P2;PMS_P1;PMS_P2;Temp;Humidity;BMP_temperature;BMP_pressure;BME280_temperature;BME280_humidity;BME280_pressure;Samples;Min_cycle;Max_cycle;Signal;HPM_P1;HPM_P2
2022/12/24 00:00:32;;;;;;;55.08;19.05;;;;;;;6.41;100.00;100874.52;1760618;80;20975;-84
2022/12/24 00:02:58;;;;;;;60.55;19.85;;;;;;;6.40;100.00;100872.36;1783123;80;21155;-84
2022/12/24 00:05:24;;;;;;;65.08;21.62;;;;;;;6.36;100.00;100873.34;1773812;80;21042;-84
2022/12/24 00:07:50;;;;;;;55.88;19.23;;;;;;;6.42;100.00;100870.81;1779919;80;21086;-89
2022/12/24 00:10:17;;;;;;;54.77;18.12;;;;;;;6.41;100.00;100867.82;1750057;80;21111;-84
2022/12/24 00:12:43;;;;;;;66.95;21.45;;;;;;;6.47;100.00;100866.92;1774680;80;21082;-83
2022/12/24 00:15:10;;;;;;;59.80;20.12;;;;;;;6.43;100.00;100868.42;1779146;79;21010;-84
2022/12/24 00:17:37;;;;;;;53.35;19.07;;;;;;;6.41;100.00;100863.28;1767255;79;21027;-84
2022/12/24 00:20:04;;;;;;;53.20;18.45;;;;;;;6.36;100.00;100863.16;1783514;79;21047;-84
2022/12/24 00:22:30;;;;;;;65.08;21.52;;;;;;;6.37;100.00;100863.45;1770505;80;21062;-84
2022/12/24 00:24:56;;;;;;;61.10;20.80;;;;;;;6.39;100.00;100856.55;1770938;80;21040;-84
2022/12/24 00:27:22;;;;;;;58.92;19.98;;;;;;;6.31;100.00;100858.47;1772818;80;21046;-82
2022/12/24 00:29:48;;;;;;;58.42;19.50;;;;;;;6.25;100.00;100864.72;1766334;80;21136;-84
2022/12/24 00:32:15;;;;;;;63.60;20.88;;;;;;;6.30;100.00;100858.70;1756731;80;21046;-84
2022/12/24 00:34:41;;;;;;;61.83;21.15;;;;;;;6.25;100.00;100846.52;1773123;80;21070;-86
2022/12/24 00:37:07;;;;;;;56.53;19.95;;;;;;;6.23;100.00;100848.59;1784260;80;21070;-84
2022/12/24 00:39:33;;;;;;;59.53;19.87;;;;;;;6.25;100.00;100851.87;1780875;80;20940;-84
2022/12/24 00:42:00;;;;;;;58.35;19.50;;;;;;;6.29;100.00;100844.48;1755984;80;21062;-84
2022/12/24 00:44:26;;;;;;;60.00;19.48;;;;;;;6.30;100.00;100846.14;1783866;80;21059;-83
2022/12/24 00:46:52;;;;;;;57.00;19.10;;;;;;;6.31;100.00;100840.27;1766832;80;21031;-83
2022/12/24 00:49:18;;;;;;;54.70;18.57;;;;;;;6.33;100.00;100837.66;1782270;80;21038;-84
2022/12/24 00:51:45;;;;;;;59.90;20.17;;;;;;;6.33;100.00;100834.17;1770018;79;20991;-84
2022/12/24 00:54:13;;;;;;;55.73;19.30;;;;;;;6.28;100.00;100834.84;1763342;80;21007;-88
2022/12/24 00:56:39;;;;;;;56.88;20.90;;;;;;;6.26;100.00;100833.42;1755478;80;21169;-85
2022/12/24 00:59:06;;;;;;;57.58;20.08;;;;;;;6.26;100.00;100829.41;1763367;80;20996;-84
2022/12/24 01:01:32;;;;;;;63.13;19.77;;;;;;;6.25;100.00;100825.11;1752273;80;21151;-84
2022/12/24 01:06:43;;;;;;;60.08;20.27;;;;;;;6.26;100.00;100819.52;1771855;80;21181;-82
2022/12/24 01:09:09;;;;;;;60.63;20.62;;;;;;;6.27;100.00;100819.83;1742400;80;21129;-84
2022/12/24 01:11:35;;;;;;;59.15;20.27;;;;;;;6.32;100.00;100815.12;1752705;80;21054;-87
2022/12/24 01:14:02;;;;;;;60.83;20.20;;;;;;;6.29;100.00;100819.06;1772289;80;21088;-82
2022/12/24 01:16:28;;;;;;;57.43;19.85;;;;;;;6.28;100.00;100816.10;1773336;80;21008;-84
2022/12/24 01:18:54;;;;;;;54.90;19.35;;;;;;;6.27;100.00;100813.14;1768349;80;21055;-83
2022/12/24 01:21:21;;;;;;;55.10;19.48;;;;;;;6.27;100.00;100819.83;1768111;80;21082;-87
2022/12/24 01:23:47;;;;;;;55.45;19.55;;;;;;;6.25;100.00;100810.39;1775462;80;20987;-84
2022/12/24 01:26:13;;;;;;;52.80;20.45;;;;;;;6.25;100.00;100809.05;1776762;80;21078;-82
2022/12/24 01:28:40;;;;;;;51.73;18.87;;;;;;;6.24;100.00;100809.58;1780278;80;21020;-83
2022/12/24 01:31:16;;;;;;;57.90;19.62;;;;;;;6.22;100.00;100807.64;1779850;79;21026;-85
2022/12/24 01:33:43;;;;;;;57.75;19.95;;;;;;;6.22;100.00;100802.81;1781478;80;21078;-81
2022/12/24 01:36:11;;;;;;;55.65;18.80;;;;;;;6.18;100.00;100809.64;1766226;80;21499;-82
2022/12/24 01:38:37;;;;;;;56.00;19.37;;;;;;;6.10;100.00;100808.11;1779988;80;21081;-84
2022/12/24 01:43:48;;;;;;;54.80;19.73;;;;;;;6.06;100.00;100810.42;1758040;81;21024;-83
2022/12/24 01:46:25;;;;;;;51.92;19.02;;;;;;;5.99;100.00;100806.18;1754528;81;21011;-83
2022/12/24 01:49:01;;;;;;;50.43;19.12;;;;;;;5.98;100.00;100809.38;1764448;80;21014;-86
2022/12/24 01:51:51;;;;;;;57.15;20.48;;;;;;;5.97;100.00;100809.59;1748036;79;21105;-83
2022/12/24 01:54:28;;;;;;;59.88;20.10;;;;;;;5.94;100.00;100809.52;1682920;84;21585;-83
2022/12/24 01:57:03;;;;;;;56.20;20.45;;;;;;;5.91;100.00;100802.75;1603803;86;21204;-83
2022/12/24 01:59:30;;;;;;;65.32;20.23;;;;;;;5.90;100.00;100809.64;1593107;88;21043;-84
2022/12/24 02:01:56;;;;;;;59.73;20.48;;;;;;;5.92;100.00;100812.39;1601125;88;21115;-83
2022/12/24 02:04:42;;;;;;;62.67;21.57;;;;;;;5.89;100.00;100811.50;1587550;88;21113;-81
2022/12/24 02:07:08;;;;;;;61.02;20.77;;;;;;;5.89;100.00;100808.02;1590595;88;21090;-84
2022/12/24 02:09:35;;;;;;;57.73;20.35;;;;;;;5.87;100.00;100810.91;1590477;88;21154;-83
2022/12/24 02:12:04;;;;;;;57.33;20.02;;;;;;;5.86;100.00;100810.62;1598737;89;21630;-82
2022/12/24 02:14:31;;;;;;;49.67;18.15;;;;;;;5.87;100.00;100806.89;1599551;89;21049;-84
2022/12/24 02:17:05;;;;;;;51.95;19.10;;;;;;;5.85;100.00;100804.14;1580345;89;21265;-83
2022/12/24 02:20:17;;;;;;;53.20;19.37;;;;;;;5.83;100.00;100807.05;1600166;89;21080;-83
2022/12/24 02:23:25;;;;;;;53.55;19.20;;;;;;;5.80;100.00;100808.84;1601416;88;21055;-83
2022/12/24 02:26:11;;;;;;;63.80;21.02;;;;;;;5.78;100.00;100812.24;1596649;87;21737;-88
2022/12/24 02:29:23;;;;;;;54.90;19.25;;;;;;;5.72;100.00;100820.34;1597169;88;21591;-83
2022/12/24 02:31:57;;;;;;;51.28;18.60;;;;;;;5.67;100.00;100824.48;1517732;93;21835;-83
2022/12/24 02:34:46;;;;;;;55.67;19.35;;;;;;;5.65;100.00;100821.23;1456766;98;21145;-82
2022/12/24 02:37:23;;;;;;;63.65;21.80;;;;;;;5.65;100.00;100823.91;1448521;98;21166;-81
2022/12/24 02:40:13;;;;;;;59.80;21.20;;;;;;;5.66;100.00;100816.70;1411182;100;21110;-83
2022/12/24 02:42:47;;;;;;;55.75;19.48;;;;;;;5.60;100.00;100813.58;1404570;100;21235;-84
2022/12/24 02:45:30;;;;;;;58.75;21.15;;;;;;;5.59;100.00;100819.94;1410007;101;21193;-81
2022/12/24 02:48:00;;;;;;;69.53;24.70;;;;;;;5.60;100.00;100814.39;1410126;100;21979;-82
2022/12/24 02:50:28;;;;;;;68.47;24.25;;;;;;;5.59;100.00;100815.93;1409621;100;21192;-83
2022/12/24 02:52:54;;;;;;;63.60;22.35;;;;;;;5.56;100.00;100819.05;1411156;101;21601;-82
2022/12/24 02:55:40;;;;;;;66.60;23.80;;;;;;;5.54;100.00;100819.81;1396538;100;21103;-83
2022/12/24 02:58:34;;;;;;;73.33;24.75;;;;;;;5.52;100.00;100832.04;1441098;96;21345;-84
2022/12/24 03:01:33;;;;;;;61.75;22.10;;;;;;;5.54;100.00;100838.00;1494454;92;21101;-88
2022/12/24 03:04:38;;;;;;;68.05;22.82;;;;;;;5.59;100.00;100834.64;1467110;96;21204;-83
2022/12/24 03:07:15;;;;;;;66.53;21.23;;;;;;;5.60;100.00;100829.61;1458161;97;21139;-82
2022/12/24 03:10:30;;;;;;;59.15;21.00;;;;;;;5.62;100.00;100831.55;1492429;94;21169;-84
2022/12/24 03:13:01;;;;;;;65.67;21.42;;;;;;;5.61;100.00;100831.23;1515166;93;21245;-81
2022/12/24 03:15:31;;;;;;;73.67;23.87;;;;;;;5.62;100.00;100812.84;1477252;93;21660;-82
2022/12/24 03:18:01;;;;;;;78.80;27.20;;;;;;;5.58;100.00;100820.98;1547927;89;21066;-82
2022/12/24 03:20:41;;;;;;;105.03;35.60;;;;;;;5.57;100.00;100819.37;1555379;90;21116;-82
2022/12/24 03:23:08;;;;;;;84.15;27.93;;;;;;;5.61;100.00;100816.53;1551295;90;21610;-83
2022/12/24 03:25:38;;;;;;;75.25;25.80;;;;;;;5.61;100.00;100814.67;1556263;90;21846;-81
2022/12/24 03:28:07;;;;;;;71.42;24.92;;;;;;;5.61;100.00;100815.20;1547865;89;21094;-82
2022/12/24 03:30:33;;;;;;;74.47;24.45;;;;;;;5.63;100.00;100817.14;1552599;91;21153;-81
2022/12/24 03:33:00;;;;;;;71.75;23.77;;;;;;;5.64;100.00;100818.77;1556082;91;21212;-82
2022/12/24 03:35:26;;;;;;;69.92;22.85;;;;;;;5.61;100.00;100829.38;1542546;89;21158;-83
2022/12/24 03:37:52;;;;;;;65.83;22.45;;;;;;;5.63;100.00;100827.84;1548727;91;21269;-81
2022/12/24 03:40:19;;;;;;;65.05;21.87;;;;;;;5.66;100.00;100823.37;1548596;90;21017;-82
2022/12/24 03:42:45;;;;;;;65.50;21.80;;;;;;;5.66;100.00;100824.20;1533411;91;21632;-81
2022/12/24 03:45:11;;;;;;;61.00;20.75;;;;;;;5.66;100.00;100819.38;1545550;90;21160;-88
2022/12/24 03:47:37;;;;;;;62.43;21.30;;;;;;;5.66;100.00;100823.37;1562057;90;21112;-83
2022/12/24 03:50:05;;;;;;;60.75;21.23;;;;;;;5.63;100.00;100830.51;1563852;90;21098;-82
2022/12/24 03:52:31;;;;;;;60.33;21.65;;;;;;;5.65;100.00;100838.61;1562552;91;21046;-88
2022/12/24 03:54:57;;;;;;;59.95;20.23;;;;;;;5.68;100.00;100837.36;1555685;91;21100;-82
2022/12/24 03:57:24;;;;;;;65.10;22.40;;;;;;;5.68;100.00;100832.01;1553146;90;21142;-82
2022/12/24 03:59:50;;;;;;;65.47;23.85;;;;;;;5.67;100.00;100829.02;1573030;85;21094;-82
2022/12/24 04:02:16;;;;;;;69.85;24.20;;;;;;;5.67;100.00;100824.48;1655304;84;21138;-82
2022/12/24 04:04:43;;;;;;;66.12;22.98;;;;;;;5.62;100.00;100817.67;1665683;84;21024;-81
2022/12/24 04:07:09;;;;;;;71.87;23.50;;;;;;;5.65;100.00;100816.41;1647354;85;21067;-82
2022/12/24 04:09:35;;;;;;;74.47;25.97;;;;;;;5.67;100.00;100820.99;1671149;84;21038;-83
2022/12/24 04:12:02;;;;;;;74.85;26.12;;;;;;;5.67;100.00;100819.66;1712542;80;21052;-83
2022/12/24 04:14:28;;;;;;;70.47;24.77;;;;;;;5.65;100.00;100825.24;1770223;80;21865;-82
2022/12/24 04:16:54;;;;;;;74.12;24.80;;;;;;;5.63;100.00;100820.63;1772619;80;21694;-82
2022/12/24 04:19:20;;;;;;;76.07;26.15;;;;;;;5.65;100.00;100824.43;1768151;80;20964;-82
2022/12/24 04:21:47;;;;;;;78.00;25.25;;;;;;;5.61;100.00;100817.34;1766806;80;21062;-82
2022/12/24 04:24:13;;;;;;;83.03;25.60;;;;;;;5.62;100.00;100810.17;1781090;80;21011;-81
2022/12/24 04:26:39;;;;;;;82.20;25.92;;;;;;;5.64;100.00;100813.42;1763951;80;21191;-84
2022/12/24 04:29:05;;;;;;;84.80;27.67;;;;;;;5.67;100.00;100815.65;1762883;80;21035;-82
2022/12/24 04:31:32;;;;;;;73.80;25.05;;;;;;;5.65;100.00;100812.40;1769495;80;21030;-88
2022/12/24 04:33:58;;;;;;;77.40;26.57;;;;;;;5.64;100.00;100810.22;1771562;80;20996;-83
2022/12/24 04:36:24;;;;;;;71.00;24.02;;;;;;;5.67;100.00;100814.31;1783550;80;21136;-81
2022/12/24 04:38:50;;;;;;;71.97;24.80;;;;;;;5.62;100.00;100812.84;1754769;80;21079;-82
2022/12/24 04:41:22;;;;;;;74.97;25.65;;;;;;;5.60;100.00;100815.73;1763331;80;20999;-82
2022/12/24 04:43:49;;;;;;;73.65;24.00;;;;;;;5.55;100.00;100816.09;1751484;80;21538;-82
2022/12/24 04:46:23;;;;;;;71.22;24.07;;;;;;;5.55;100.00;100815.56;1753894;80;21011;-82
2022/12/24 04:48:51;;;;;;;77.22;26.15;;;;;;;5.59;100.00;100819.94;1761666;80;21019;-82
2022/12/24 04:51:17;;;;;;;71.12;24.57;;;;;;;5.62;100.00;100814.99;1764989;80;21121;-82
2022/12/24 04:53:44;;;;;;;66.15;23.85;;;;;;;5.65;100.00;100819.08;1785662;79;20998;-81
2022/12/24 04:56:15;;;;;;;69.30;23.80;;;;;;;5.66;100.00;100816.17;1771408;80;20995;-82
2022/12/24 04:58:41;;;;;;;76.05;24.55;;;;;;;5.64;100.00;100814.23;1725411;81;21063;-87
2022/12/24 05:01:15;;;;;;;77.92;26.95;;;;;;;5.66;100.00;100823.37;1742065;81;21056;-82
2022/12/24 05:03:41;;;;;;;73.62;26.77;;;;;;;5.69;100.00;100822.94;1710434;82;22585;-86
2022/12/24 05:06:11;;;;;;;71.92;25.15;;;;;;;5.65;100.00;100833.79;1737054;81;21009;-86
2022/12/24 05:08:37;;;;;;;76.15;26.05;;;;;;;5.61;100.00;100831.23;1730128;81;21138;-85
2022/12/24 05:11:04;;;;;;;79.55;25.88;;;;;;;5.61;100.00;100835.25;1749601;81;21112;-81
2022/12/24 05:13:30;;;;;;;82.88;28.15;;;;;;;5.60;100.00;100841.13;1727915;81;21057;-82
2022/12/24 05:15:57;;;;;;;76.95;26.87;;;;;;;5.58;100.00;100840.52;1746827;81;21076;-82
2022/12/24 05:18:23;;;;;;;100.10;31.87;;;;;;;5.58;100.00;100837.03;1731369;81;21013;-80
2022/12/24 05:20:50;;;;;;;78.25;27.42;;;;;;;5.58;100.00;100832.50;1724179;81;21012;-83
2022/12/24 05:26:21;;;;;;;90.22;30.10;;;;;;;5.63;100.00;100838.00;1730710;81;21100;-82
2022/12/24 05:28:55;;;;;;;92.33;28.25;;;;;;;5.64;100.00;100835.62;1629796;85;21083;-82
2022/12/24 05:31:24;;;;;;;79.32;27.37;;;;;;;5.66;100.00;100844.24;1647006;84;21128;-83
2022/12/24 05:33:50;;;;;;;85.42;28.02;;;;;;;5.64;100.00;100844.97;1659282;86;21286;-83
2022/12/24 05:36:17;;;;;;;84.42;27.82;;;;;;;5.64;100.00;100846.31;1657979;86;21066;-82
2022/12/24 05:38:47;;;;;;;158.95;48.63;;;;;;;5.65;100.00;100845.82;1658561;85;21080;-81
2022/12/24 05:41:13;;;;;;;134.00;42.38;;;;;;;5.70;100.00;100846.77;1573287;90;21646;-80
2022/12/24 05:43:39;;;;;;;84.58;28.30;;;;;;;5.70;100.00;100835.26;1570075;90;21563;-81
2022/12/24 05:46:09;;;;;;;72.45;25.10;;;;;;;5.64;100.00;100840.16;1549601;91;21140;-82
2022/12/24 05:48:36;;;;;;;72.00;23.10;;;;;;;5.57;100.00;100840.75;1570404;90;21092;-82
2022/12/24 05:51:08;;;;;;;63.83;22.40;;;;;;;5.50;100.00;100828.80;1575129;90;21176;-81
2022/12/24 05:53:35;;;;;;;71.57;23.55;;;;;;;5.45;100.00;100832.11;1577233;91;21113;-81
2022/12/24 05:56:04;;;;;;;68.22;23.65;;;;;;;5.45;100.00;100827.30;1595241;88;21233;-85
2022/12/24 05:58:31;;;;;;;69.53;24.85;;;;;;;5.46;100.00;100832.92;1606846;88;21650;-83
2022/12/24 06:00:57;;;;;;;68.20;23.90;;;;;;;5.49;100.00;100830.34;1610648;88;21038;-82
2022/12/24 06:03:24;;;;;;;69.03;24.23;;;;;;;5.50;100.00;100832.80;1605811;87;21642;-81
2022/12/24 06:06:13;;;;;;;75.90;26.42;;;;;;;5.56;100.00;100835.92;1612025;87;21728;-83
2022/12/24 06:08:41;;;;;;;79.32;26.48;;;;;;;5.60;100.00;100840.31;1548905;91;21050;-84
2022/12/24 06:11:11;;;;;;;73.12;24.87;;;;;;;5.62;100.00;100840.39;1548653;91;21121;-82
2022/12/24 06:13:40;;;;;;;80.90;27.25;;;;;;;5.67;100.00;100850.41;1550368;92;21109;-83
2022/12/24 06:16:11;;;;;;;74.40;25.77;;;;;;;5.69;100.00;100859.03;1546095;92;21128;-82
2022/12/24 06:18:37;;;;;;;77.37;26.75;;;;;;;5.70;100.00;100863.33;1579400;88;21197;-88
2022/12/24 06:21:05;;;;;;;76.97;26.95;;;;;;;5.76;100.00;100857.63;1609756;87;21321;-86
2022/12/24 06:23:35;;;;;;;78.30;26.35;;;;;;;5.79;100.00;100851.30;1608101;88;21222;-87
2022/12/24 06:26:03;;;;;;;76.12;26.77;;;;;;;5.77;100.00;100856.60;1615406;88;21011;-89
2022/12/24 06:28:35;;;;;;;77.53;26.35;;;;;;;5.82;100.00;100864.76;1619141;88;21033;-83
2022/12/24 06:31:04;;;;;;;69.95;24.75;;;;;;;5.88;100.00;100866.55;1608452;88;21786;-85
2022/12/24 06:33:32;;;;;;;77.47;25.60;;;;;;;5.91;100.00;100854.91;1614177;88;21072;-83
2022/12/24 06:35:59;;;;;;;68.95;25.60;;;;;;;5.92;100.00;100854.37;1615012;88;21121;-82
2022/12/24 06:38:25;;;;;;;70.80;24.20;;;;;;;5.92;100.00;100864.55;1618528;87;21128;-83
2022/12/24 06:40:51;;;;;;;76.20;26.00;;;;;;;5.96;100.00;100860.13;1609144;88;21053;-88
2022/12/24 06:43:18;;;;;;;77.37;26.05;;;;;;;6.02;100.00;100851.20;1616894;88;21096;-82
2022/12/24 06:45:49;;;;;;;72.03;25.52;;;;;;;6.06;100.00;100849.21;1645386;85;21030;-81
2022/12/24 06:48:16;;;;;;;63.45;23.32;;;;;;;6.08;100.00;100862.34;1674509;85;21022;-82
2022/12/24 06:50:42;;;;;;;77.47;26.10;;;;;;;6.11;100.00;100855.22;1680877;84;21278;-87
2022/12/24 06:53:09;;;;;;;77.90;27.25;;;;;;;6.14;100.00;100854.77;1683547;84;21096;-82
2022/12/24 06:55:35;;;;;;;92.33;31.25;;;;;;;6.18;100.00;100855.13;1686957;84;21222;-83
2022/12/24 06:58:02;;;;;;;85.12;29.50;;;;;;;6.20;100.00;100859.75;1686711;85;21037;-89
2022/12/24 07:00:29;;;;;;;85.12;30.23;;;;;;;6.25;100.00;100860.70;1676533;84;21038;-83
2022/12/24 07:02:55;;;;;;;88.47;30.50;;;;;;;6.28;100.00;100857.58;1682297;84;21038;-82
2022/12/24 07:05:21;;;;;;;92.02;30.50;;;;;;;6.29;100.00;100861.07;1660945;85;21090;-86
2022/12/24 07:07:47;;;;;;;84.97;28.45;;;;;;;6.28;100.00;100854.91;1681008;84;21251;-82
2022/12/24 07:10:16;;;;;;;82.85;29.00;;;;;;;6.32;100.00;100858.78;1679150;85;21148;-82
2022/12/24 07:12:43;;;;;;;79.75;28.50;;;;;;;6.31;100.00;100851.78;1685944;84;21748;-86
2022/12/24 07:15:11;;;;;;;97.25;32.30;;;;;;;6.27;100.00;100851.95;1664718;83;20992;-83
2022/12/24 07:17:38;;;;;;;105.60;35.70;;;;;;;6.27;100.00;100851.13;1758095;79;21553;-88
2022/12/24 07:20:06;;;;;;;93.00;33.45;;;;;;;6.28;100.00;100851.41;1782516;79;21221;-81
2022/12/24 07:22:33;;;;;;;93.40;31.35;;;;;;;6.28;100.00;100850.89;1762436;79;20972;-83
2022/12/24 07:25:00;;;;;;;89.32;31.00;;;;;;;6.33;100.00;100852.38;1746575;81;21099;-82
2022/12/24 07:27:26;;;;;;;81.65;29.87;;;;;;;6.44;100.00;100852.64;1754345;80;21523;-81
2022/12/24 07:29:52;;;;;;;82.02;29.75;;;;;;;6.53;100.00;100848.61;1767162;80;21708;-80
2022/12/24 07:32:19;;;;;;;81.10;28.50;;;;;;;6.57;100.00;100855.16;1765509;80;21535;-84
2022/12/24 07:34:46;;;;;;;74.58;28.02;;;;;;;6.66;100.00;100857.81;1777186;80;21464;-82
2022/12/24 07:37:12;;;;;;;78.30;27.77;;;;;;;6.80;100.00;100855.78;1773567;80;21110;-87
2022/12/24 07:39:38;;;;;;;82.53;28.38;;;;;;;6.93;100.00;100859.58;1753576;80;21066;-81
2022/12/24 07:42:06;;;;;;;77.82;27.42;;;;;;;7.04;100.00;100851.29;1782320;79;21094;-86
2022/12/24 07:44:33;;;;;;;72.00;25.43;;;;;;;7.12;100.00;100854.14;1772476;80;22187;-88
2022/12/24 07:46:59;;;;;;;73.55;25.45;;;;;;;7.22;100.00;100849.86;1782528;80;21674;-89
2022/12/24 07:49:26;;;;;;;79.17;29.05;;;;;;;7.27;100.00;100851.33;1743693;80;21079;-91
2022/12/24 07:51:53;;;;;;;86.12;27.75;;;;;;;7.32;100.00;100848.47;1768681;78;21253;-90
2022/12/24 07:54:19;;;;;;;74.27;25.27;;;;;;;7.34;100.00;100851.22;1750285;79;21008;-89
2022/12/24 07:56:45;;;;;;;73.87;26.80;;;;;;;7.37;100.00;100848.59;1741040;81;21651;-90
2022/12/24 07:59:13;;;;;;;77.58;25.48;;;;;;;7.45;100.00;100841.55;1740342;81;20985;-93
2022/12/24 08:01:40;;;;;;;73.52;25.65;;;;;;;7.57;100.00;100841.03;1739170;81;21158;-92
2022/12/24 08:04:06;;;;;;;72.37;24.43;;;;;;;7.63;100.00;100840.63;1739959;81;21106;-90
2022/12/24 08:06:33;;;;;;;69.65;24.90;;;;;;;7.72;100.00;100841.36;1732226;81;21000;-90
2022/12/24 08:08:59;;;;;;;68.12;24.87;;;;;;;7.76;100.00;100838.20;1749038;80;21985;-91
2022/12/24 08:11:25;;;;;;;67.82;23.12;;;;;;;7.81;100.00;100841.02;1741598;81;20929;-90
2022/12/24 08:13:52;;;;;;;63.30;23.02;;;;;;;7.88;100.00;100847.05;1751980;80;21159;-92
2022/12/24 08:16:18;;;;;;;63.68;23.98;;;;;;;7.91;100.00;100839.38;1759061;80;21260;-91
2022/12/24 08:18:44;;;;;;;65.10;23.60;;;;;;;7.96;100.00;100834.63;1743262;80;21059;-91
2022/12/24 08:21:10;;;;;;;59.25;22.48;;;;;;;8.03;100.00;100836.67;1728085;81;21921;-90
2022/12/24 08:23:37;;;;;;;67.45;25.12;;;;;;;8.09;100.00;100833.03;1743936;80;21039;-95
2022/12/24 08:26:07;;;;;;;63.50;23.73;;;;;;;8.07;100.00;100838.34;1740100;79;21098;-90
2022/12/24 08:28:33;;;;;;;64.07;23.92;;;;;;;8.11;100.00;100832.25;1749018;78;21058;-92
2022/12/24 08:31:00;;;;;;;67.32;24.60;;;;;;;8.25;100.00;100828.77;1738496;80;21090;-90
2022/12/24 08:33:26;;;;;;;62.23;25.05;;;;;;;8.42;100.00;100824.84;1755585;81;21332;-90
2022/12/24 08:35:54;;;;;;;64.30;23.45;;;;;;;8.58;100.00;100828.62;1743698;81;21017;-92
2022/12/24 08:38:22;;;;;;;62.93;24.43;;;;;;;8.75;100.00;100834.03;1757451;80;21066;-91
2022/12/24 08:40:49;;;;;;;68.97;24.75;;;;;;;8.80;100.00;100834.94;1753126;79;21110;-91
2022/12/24 08:43:16;;;;;;;64.37;23.47;;;;;;;8.75;100.00;100832.16;1770669;79;21113;-90
2022/12/24 08:45:42;;;;;;;63.28;23.55;;;;;;;8.77;100.00;100830.05;1745112;80;21001;-92
2022/12/24 08:48:10;;;;;;;62.33;23.22;;;;;;;8.81;100.00;100833.87;1744342;80;20995;-91
2022/12/24 08:50:39;;;;;;;61.18;23.25;;;;;;;8.79;100.00;100833.30;1758061;78;21043;-89
2022/12/24 08:53:05;;;;;;;66.30;24.60;;;;;;;8.70;100.00;100831.25;1746147;79;21078;-89
2022/12/24 08:55:32;;;;;;;75.35;29.10;;;;;;;8.66;100.00;100823.40;1751113;78;21063;-92
2022/12/24 08:58:04;;;;;;;71.35;27.85;;;;;;;8.63;100.00;100820.13;1743881;80;21601;-91
2022/12/24 09:00:30;;;;;;;69.95;25.75;;;;;;;8.59;100.00;100818.99;1737454;80;21016;-90
2022/12/24 09:02:57;;;;;;;64.82;24.60;;;;;;;8.59;100.00;100818.18;1779390;79;20992;-90
2022/12/24 09:05:24;;;;;;;59.98;23.10;;;;;;;8.59;100.00;100814.96;1753280;80;21697;-89
2022/12/24 09:07:51;;;;;;;54.70;21.42;;;;;;;8.58;100.00;100806.59;1774143;78;21162;-91
2022/12/24 09:10:17;;;;;;;60.55;23.65;;;;;;;8.57;100.00;100807.66;1743518;80;22030;-90
2022/12/24 09:12:43;;;;;;;67.10;24.90;;;;;;;8.58;100.00;100807.94;1703408;84;21016;-88
2022/12/24 09:15:10;;;;;;;63.87;24.82;;;;;;;8.62;100.00;100805.08;1704655;84;21499;-90
2022/12/24 09:17:37;;;;;;;152.50;64.25;;;;;;;8.68;100.00;100807.83;1700698;84;21138;-90
2022/12/24 09:20:05;;;;;;;81.65;31.55;;;;;;;8.74;100.00;100801.52;1697261;84;21627;-87
2022/12/24 09:22:35;;;;;;;93.05;42.10;;;;;;;8.81;100.00;100801.62;1697350;84;21131;-90
2022/12/24 09:25:03;;;;;;;114.57;50.05;;;;;;;8.90;100.00;100801.23;1697567;84;20989;-92
2022/12/24 09:27:31;;;;;;;118.02;50.40;;;;;;;9.01;100.00;100799.01;1697191;84;21036;-90
2022/12/24 09:29:57;;;;;;;83.82;32.70;;;;;;;9.09;100.00;100799.95;1697629;84;21072;-90
2022/12/24 09:32:23;;;;;;;85.17;34.23;;;;;;;9.10;100.00;100798.88;1654166;86;21155;-87
2022/12/24 09:34:49;;;;;;;67.58;27.05;;;;;;;9.10;100.00;100797.00;1654363;86;21121;-90
2022/12/24 09:37:16;;;;;;;65.55;24.32;;;;;;;9.11;100.00;100795.12;1654544;86;21176;-90
2022/12/24 09:39:43;;;;;;;64.97;25.08;;;;;;;9.03;100.00;100795.52;1654520;86;21143;-94
2022/12/24 09:42:29;;;;;;;65.65;26.25;;;;;;;9.02;100.00;100800.09;1654287;86;21108;-91
2022/12/24 09:45:18;;;;;;;66.17;26.00;;;;;;;8.97;100.00;100788.44;1699925;83;21040;-92
2022/12/24 09:47:52;;;;;;;67.05;24.95;;;;;;;8.93;100.00;100794.03;1693409;83;21182;-92
2022/12/24 09:50:35;;;;;;;64.37;24.95;;;;;;;8.86;100.00;100791.51;1630604;85;21218;-90
2022/12/24 09:53:07;;;;;;;73.33;25.95;;;;;;;8.77;100.00;100791.09;1626310;86;21024;-91
2022/12/24 09:55:41;;;;;;;64.87;25.32;;;;;;;8.71;100.00;100789.91;1632538;85;21616;-93
2022/12/24 09:58:22;;;;;;;63.17;23.73;;;;;;;8.65;100.00;100791.69;1646235;85;21105;-91
2022/12/24 10:00:51;;;;;;;72.37;26.62;;;;;;;8.57;100.00;100791.55;1645779;85;21160;-91
2022/12/24 10:03:18;;;;;;;72.92;25.25;;;;;;;8.54;100.00;100789.87;1669221;84;21070;-91
2022/12/24 10:05:52;;;;;;;64.90;25.82;;;;;;;8.56;100.00;100787.24;1664893;84;21123;-90
2022/12/24 10:08:40;;;;;;;64.50;25.68;;;;;;;8.58;100.00;100786.45;1661906;85;20998;-92
2022/12/24 14:01:56;;;;;;;245.15;90.10;;;;;;;6.07;100.00;100816.58;1810124;77;26251;-91
2022/12/24 14:04:31;;;;;;;125.50;41.70;;;;;;;6.40;100.00;100825.52;1778155;79;21025;-93
2022/12/24 14:07:01;;;;;;;231.02;84.95;;;;;;;6.60;100.00;100827.94;1652992;84;21204;-92
2022/12/24 14:09:30;;;;;;;129.35;47.75;;;;;;;6.79;100.00;100827.34;1657161;84;21114;-90
2022/12/24 14:12:04;;;;;;;76.12;27.37;;;;;;;6.90;100.00;100826.56;1654184;86;21614;-91
2022/12/24 14:14:38;;;;;;;67.62;24.23;;;;;;;7.04;100.00;100829.33;1654814;84;21047;-90
2022/12/24 14:17:25;;;;;;;74.75;27.30;;;;;;;7.17;100.00;100824.80;1658102;84;21182;-88
2022/12/24 14:19:58;;;;;;;72.03;26.05;;;;;;;7.27;100.00;100822.38;1657967;84;21638;-94
2022/12/24 14:22:35;;;;;;;123.45;44.65;;;;;;;7.33;100.00;100832.70;1566631;89;21135;-89
2022/12/24 14:25:16;;;;;;;99.20;33.73;;;;;;;7.41;100.00;100834.51;1523538;93;21084;-90
2022/12/24 14:27:59;;;;;;;76.50;27.07;;;;;;;7.47;100.00;100834.91;1519571;93;21129;-93
2022/12/24 14:30:29;;;;;;;79.95;27.90;;;;;;;7.55;100.00;100841.77;1521062;93;21188;-92
2022/12/24 14:32:56;;;;;;;80.00;27.67;;;;;;;7.61;100.00;100842.70;1530923;93;21366;-90
2022/12/24 14:35:29;;;;;;;73.45;26.55;;;;;;;7.64;100.00;100839.03;1511323;93;22539;-91
2022/12/24 14:38:05;;;;;;;78.05;26.20;;;;;;;7.70;100.00;100845.33;1509317;94;21130;-92
2022/12/24 14:40:43;;;;;;;81.67;28.42;;;;;;;7.74;100.00;100845.17;1475528;95;21136;-92
2022/12/24 14:43:20;;;;;;;82.72;26.60;;;;;;;7.77;100.00;100846.03;1468696;95;21164;-92
2022/12/24 14:46:31;;;;;;;73.20;26.17;;;;;;;7.77;100.00;100844.70;1476456;95;21242;-91
2022/12/24 14:49:21;;;;;;;89.65;26.82;;;;;;;7.79;100.00;100846.59;1468781;95;21029;-91
2022/12/24 14:52:16;;;;;;;76.97;28.17;;;;;;;7.82;100.00;100853.36;1453341;97;21713;-92
2022/12/24 14:54:43;;;;;;;71.47;26.68;;;;;;;7.81;100.00;100853.08;1440294;99;21168;-92
2022/12/24 14:57:15;;;;;;;73.67;26.68;;;;;;;7.84;100.00;100853.42;1433514;99;21078;-91
2022/12/24 14:59:53;;;;;;;79.53;27.42;;;;;;;7.85;100.00;100850.20;1430385;99;21443;-92
2022/12/24 15:02:41;;;;;;;85.62;28.32;;;;;;;7.87;100.00;100856.98;1367172;104;21131;-90
2022/12/24 15:05:27;;;;;;;73.65;27.93;;;;;;;7.89;100.00;100854.88;1362877;104;21312;-92
2022/12/24 15:11:35;;;;;;;77.58;27.73;;;;;;;7.88;100.00;100863.16;1349783;105;21251;-90
2022/12/24 15:14:02;;;;;;;82.72;30.17;;;;;;;7.89;100.00;100859.44;1350861;106;21205;-90
2022/12/24 15:16:35;;;;;;;66.20;25.45;;;;;;;7.93;100.00;100856.03;1349868;104;21115;-92
2022/12/24 15:19:18;;;;;;;76.80;27.82;;;;;;;7.82;100.00;100838.08;1358882;102;21162;-92
2022/12/24 15:25:32;;;;;;;74.42;27.13;;;;;;;7.78;100.00;100863.75;1401173;102;21234;-90
2022/12/24 15:27:58;;;;;;;80.28;28.15;;;;;;;7.77;100.00;100864.81;1405592;100;21182;-90
2022/12/24 15:30:28;;;;;;;70.15;24.50;;;;;;;7.79;100.00;100864.56;1400658;100;21233;-91